Time;durP1;ratioP1;P1;durP2;ratioP2;P2;SDS_P1;SDS_P2;PMS_P1;PMS_P2;Temp;Humidity;BMP_temperature;BMP_pressure;BME280_temperature;BME280_humidity;BME280_pressure;Samples;Min_cycle;Max_cycle;Signal;HPM_P1;HPM_P2
2024/01/02 00:02:09;;;;;;;22.03;5.33;;;4.70;83.30;;;;;;5024305;28;20139;-73
2024/01/02 00:04:35;;;;;;;15.47;4.87;;;4.70;83.20;;;;;;5040593;28;20074;-73
2024/01/02 00:07:00;;;;;;;22.70;5.50;;;4.70;83.20;;;;;;5024736;28;20078;-73
2024/01/02 00:09:26;;;;;;;20.37;5.30;;;4.70;83.20;;;;;;5026233;28;20052;-73
2024/01/02 00:11:52;;;;;;;18.87;5.40;;;4.70;83.20;;;;;;5025156;28;20057;-74
2024/01/02 00:14:17;;;;;;;19.13;5.30;;;4.70;83.30;;;;;;5026017;28;20053;-74
2024/01/02 00:16:43;;;;;;;17.20;5.33;;;4.70;83.20;;;;;;5024748;28;20139;-73
2024/01/02 00:19:09;;;;;;;18.07;5.37;;;4.70;83.10;;;;;;5024872;28;20076;-73
2024/01/02 00:21:35;;;;;;;17.37;5.17;;;4.70;83.10;;;;;;5025440;28;20103;-73
2024/01/02 00:24:02;;;;;;;20.30;5.57;;;4.70;83.10;;;;;;5024578;28;20059;-73
2024/01/02 00:26:28;;;;;;;26.67;5.73;;;4.70;83.20;;;;;;5023803;28;20595;-73
2024/01/02 00:28:54;;;;;;;18.43;5.07;;;4.70;83.20;;;;;;5025583;28;20040;-73
2024/01/02 00:31:19;;;;;;;17.13;5.77;;;4.70;83.20;;;;;;5025280;28;20060;-73
2024/01/02 00:33:45;;;;;;;16.97;5.30;;;4.70;83.10;;;;;;5023551;28;20053;-73
2024/01/02 00:36:11;;;;;;;19.80;5.87;;;4.70;83.20;;;;;;5025190;28;20042;-73
2024/01/02 00:38:41;;;;;;;17.33;5.77;;;4.70;83.20;;;;;;5026016;28;20054;-73
2024/01/02 00:41:07;;;;;;;17.83;5.60;;;4.70;83.20;;;;;;5024291;28;20060;-74
2024/01/02 00:43:33;;;;;;;14.07;4.80;;;4.70;83.10;;;;;;5023109;28;20485;-73
2024/01/02 00:46:00;;;;;;;21.10;5.27;;;4.70;83.10;;;;;;5024947;28;20060;-74
2024/01/02 00:48:26;;;;;;;18.17;4.90;;;4.70;83.10;;;;;;5028798;28;20049;-74
2024/01/02 00:50:52;;;;;;;21.07;5.10;;;4.70;83.00;;;;;;5032588;28;20047;-74
2024/01/02 00:53:18;;;;;;;19.27;4.60;;;4.70;83.10;;;;;;5024643;28;20477;-73
2024/01/02 00:55:43;;;;;;;19.07;4.13;;;4.70;83.20;;;;;;5023557;28;20046;-73
2024/01/02 00:58:09;;;;;;;15.77;4.03;;;4.70;83.20;;;;;;5023535;28;20061;-73
2024/01/02 01:00:35;;;;;;;10.47;4.20;;;4.70;83.30;;;;;;5024261;28;20049;-73
2024/01/02 01:03:00;;;;;;;18.33;4.03;;;4.70;83.20;;;;;;5021887;28;20037;-73
2024/01/02 01:05:26;;;;;;;19.90;4.23;;;4.70;83.40;;;;;;5018284;28;20061;-73
2024/01/02 01:07:52;;;;;;;15.70;4.20;;;4.80;83.40;;;;;;5008009;28;20045;-74
2024/01/02 01:10:18;;;;;;;17.87;4.23;;;4.80;83.60;;;;;;5008522;28;20555;-73
2024/01/02 01:12:45;;;;;;;20.03;4.17;;;4.90;83.70;;;;;;5008324;28;20060;-74
2024/01/02 01:15:10;;;;;;;18.83;4.63;;;4.80;83.80;;;;;;5008051;28;20053;-73
2024/01/02 01:17:37;;;;;;;22.87;4.83;;;4.80;84.00;;;;;;5008731;28;20045;-75
2024/01/02 01:20:03;;;;;;;21.30;4.87;;;4.80;84.10;;;;;;5007110;28;20050;-71
2024/01/02 01:22:29;;;;;;;16.43;4.40;;;4.80;84.30;;;;;;5006872;28;20042;-73
2024/01/02 01:24:55;;;;;;;22.43;4.40;;;4.90;84.50;;;;;;5016358;28;20100;-73
2024/01/02 01:27:20;;;;;;;16.67;4.30;;;4.90;84.70;;;;;;5021723;28;20107;-74
2024/01/02 01:29:46;;;;;;;25.03;4.73;;;4.90;84.90;;;;;;5011101;28;20041;-73
2024/01/02 01:32:13;;;;;;;17.43;4.47;;;4.90;85.00;;;;;;5027918;28;20307;-74
2024/01/02 01:34:38;;;;;;;18.40;4.80;;;4.90;85.10;;;;;;5027544;28;20045;-74
2024/01/02 01:37:04;;;;;;;20.07;4.53;;;4.90;85.20;;;;;;5027828;28;20048;-74
2024/01/02 01:39:30;;;;;;;22.77;4.83;;;4.90;85.30;;;;;;5028890;28;20049;-74
2024/01/02 01:41:56;;;;;;;20.13;4.57;;;4.90;85.50;;;;;;5027842;28;20124;-74
2024/01/02 01:44:21;;;;;;;22.83;5.43;;;4.90;85.60;;;;;;5030231;28;20107;-75
2024/01/02 01:46:47;;;;;;;22.50;4.83;;;4.90;85.70;;;;;;5047759;28;20571;-73
2024/01/02 01:49:14;;;;;;;27.73;5.20;;;5.00;85.80;;;;;;5028789;28;20057;-74
2024/01/02 01:51:42;;;;;;;24.13;4.97;;;5.00;85.80;;;;;;5027101;28;20095;-74
2024/01/02 01:54:12;;;;;;;22.47;4.63;;;5.00;86.00;;;;;;5023307;28;20042;-74
2024/01/02 01:56:39;;;;;;;28.97;5.50;;;4.90;86.00;;;;;;5016760;28;20058;-74
2024/01/02 01:59:05;;;;;;;19.03;4.63;;;5.00;86.20;;;;;;5025974;28;20050;-74
2024/01/02 02:01:32;;;;;;;20.27;5.37;;;5.00;86.30;;;;;;5027611;28;20068;-73
2024/01/02 02:04:02;;;;;;;19.60;4.80;;;5.00;86.40;;;;;;5028024;28;20054;-74
2024/01/02 02:06:28;;;;;;;25.73;5.13;;;5.00;86.50;;;;;;5010343;28;20068;-75
2024/01/02 02:08:54;;;;;;;20.97;4.57;;;5.00;86.50;;;;;;5027813;28;20065;-74
2024/01/02 02:11:20;;;;;;;26.60;5.43;;;5.00;86.60;;;;;;5026035;28;20449;-74
2024/01/02 02:13:49;;;;;;;21.00;5.17;;;5.00;86.60;;;;;;5027986;28;20045;-74
2024/01/02 02:16:15;;;;;;;25.93;5.13;;;5.00;86.70;;;;;;5025417;28;20374;-74
2024/01/02 02:18:41;;;;;;;24.27;5.07;;;5.00;86.80;;;;;;5027842;28;20132;-74
2024/01/02 02:21:06;;;;;;;16.47;4.63;;;5.00;86.80;;;;;;5027167;28;20194;-75
2024/01/02 02:23:32;;;;;;;21.93;5.47;;;5.00;86.90;;;;;;5027602;28;20767;-75
2024/01/02 02:25:58;;;;;;;23.37;5.60;;;5.00;86.90;;;;;;5026664;28;20053;-75
2024/01/02 02:28:24;;;;;;;25.00;6.00;;;5.00;87.10;;;;;;5027837;28;20041;-74
2024/01/02 02:30:49;;;;;;;19.73;5.33;;;5.10;87.10;;;;;;5026704;28;20143;-75
2024/01/02 02:33:15;;;;;;;26.03;5.77;;;5.10;87.10;;;;;;5027877;28;20048;-74
2024/01/02 02:35:41;;;;;;;21.53;5.80;;;5.10;87.20;;;;;;5027272;28;20045;-74
2024/01/02 02:38:06;;;;;;;19.63;5.57;;;5.10;87.10;;;;;;5027300;28;20056;-74
2024/01/02 02:40:32;;;;;;;23.30;5.97;;;5.10;87.20;;;;;;5027120;28;20072;-75
2024/01/02 02:42:58;;;;;;;20.23;6.13;;;5.10;87.30;;;;;;5027107;28;20049;-75
2024/01/02 02:45:24;;;;;;;23.97;6.37;;;5.10;87.30;;;;;;5027181;28;20046;-74
2024/01/02 02:47:50;;;;;;;17.10;6.60;;;5.20;87.30;;;;;;5027444;28;20430;-74
2024/01/02 02:50:16;;;;;;;25.70;7.37;;;5.10;87.30;;;;;;5026357;28;20045;-74
2024/01/02 02:52:41;;;;;;;20.50;7.73;;;5.20;87.50;;;;;;5027465;28;20056;-74
2024/01/02 02:55:08;;;;;;;21.00;7.63;;;5.20;87.50;;;;;;5010216;28;20481;-74
2024/01/02 02:57:33;;;;;;;21.10;7.40;;;5.20;87.50;;;;;;5027819;28;20493;-75
2024/01/02 03:00:00;;;;;;;22.10;8.57;;;5.30;87.50;;;;;;5026542;28;20041;-75
2024/01/02 03:02:26;;;;;;;20.50;8.73;;;5.30;87.50;;;;;;5022508;28;20042;-75
2024/01/02 03:04:51;;;;;;;20.60;9.50;;;5.30;87.50;;;;;;5026395;28;20370;-75
2024/01/02 03:07:19;;;;;;;29.73;10.13;;;5.30;87.50;;;;;;5027004;28;20124;-74
2024/01/02 03:09:45;;;;;;;25.67;9.53;;;5.30;87.50;;;;;;5026620;28;20064;-74
2024/01/02 03:12:14;;;;;;;30.70;11.10;;;5.30;87.50;;;;;;5025977;28;20034;-75
2024/01/02 03:14:40;;;;;;;21.23;10.40;;;5.30;87.50;;;;;;5024690;28;20056;-75
2024/01/02 03:17:06;;;;;;;23.57;10.47;;;5.30;87.60;;;;;;5024809;28;20049;-75
2024/01/02 03:19:32;;;;;;;29.13;10.97;;;5.30;87.50;;;;;;5025502;28;20041;-75
2024/01/02 03:21:57;;;;;;;24.87;10.83;;;5.30;87.50;;;;;;5025475;28;20091;-74
2024/01/02 03:24:23;;;;;;;27.07;11.17;;;5.30;87.50;;;;;;5025006;28;20045;-75
2024/01/02 03:26:49;;;;;;;24.97;11.03;;;5.30;87.50;;;;;;5025531;28;20046;-75
2024/01/02 03:29:16;;;;;;;21.67;10.77;;;5.30;87.50;;;;;;5025671;28;20727;-75
2024/01/02 03:31:43;;;;;;;24.17;10.73;;;5.30;87.50;;;;;;5026194;28;20053;-75
2024/01/02 03:34:09;;;;;;;25.83;10.57;;;5.30;87.40;;;;;;5031910;28;20076;-75
2024/01/02 03:36:34;;;;;;;25.53;10.90;;;5.30;87.40;;;;;;5026409;28;20077;-75
2024/01/02 03:39:00;;;;;;;21.10;10.10;;;5.30;87.40;;;;;;5045652;28;20067;-75
2024/01/02 03:41:26;;;;;;;22.73;10.33;;;5.30;87.40;;;;;;5025387;28;20089;-74
2024/01/02 03:43:51;;;;;;;27.03;10.27;;;5.30;87.30;;;;;;5026090;28;20052;-76
2024/01/02 03:46:17;;;;;;;20.17;10.10;;;5.30;87.30;;;;;;5026193;28;20517;-74
2024/01/02 03:48:43;;;;;;;23.00;9.27;;;5.30;87.40;;;;;;5026595;28;20088;-75
2024/01/02 03:51:08;;;;;;;24.67;10.50;;;5.30;87.20;;;;;;5025869;28;20136;-75
2024/01/02 03:53:34;;;;;;;21.97;9.83;;;5.30;87.20;;;;;;5026270;28;20053;-75
2024/01/02 03:56:00;;;;;;;17.83;9.50;;;5.30;87.30;;;;;;5017188;28;20045;-75
2024/01/02 03:58:27;;;;;;;25.03;9.03;;;5.30;87.30;;;;;;5026469;28;20053;-75
2024/01/02 04:00:53;;;;;;;20.20;9.20;;;5.30;87.30;;;;;;5024748;28;20053;-75
2024/01/02 04:03:19;;;;;;;23.57;8.50;;;5.30;87.40;;;;;;5025747;28;20429;-74
2024/01/02 04:05:45;;;;;;;20.67;8.10;;;5.30;87.30;;;;;;5024640;28;20049;-74
2024/01/02 04:08:11;;;;;;;18.63;8.77;;;5.30;87.30;;;;;;5026210;28;20037;-75
2024/01/02 04:10:38;;;;;;;15.90;8.13;;;5.30;87.20;;;;;;5025433;28;20492;-75
2024/01/02 04:13:04;;;;;;;19.00;7.90;;;5.30;87.30;;;;;;5025841;28;20496;-74
2024/01/02 04:15:30;;;;;;;19.33;8.17;;;5.30;87.30;;;;;;5025580;28;20500;-74
2024/01/02 04:17:56;;;;;;;16.30;8.07;;;5.30;87.30;;;;;;5025084;28;20060;-75
2024/01/02 04:20:22;;;;;;;18.63;7.93;;;5.30;87.40;;;;;;5024711;28;20045;-75
2024/01/02 04:22:53;;;;;;;15.73;7.50;;;5.30;87.30;;;;;;5017428;28;20045;-75
2024/01/02 04:25:19;;;;;;;24.80;8.15;;;5.30;87.30;;;;;;5025154;28;20056;-75
2024/01/02 04:27:44;;;;;;;14.93;7.80;;;5.30;87.30;;;;;;5025603;28;20045;-75
2024/01/02 04:30:11;;;;;;;20.53;7.33;;;5.30;87.40;;;;;;5025368;28;20065;-75
2024/01/02 04:32:37;;;;;;;22.10;7.40;;;5.30;87.40;;;;;;5008031;28;20515;-75
2024/01/02 04:35:03;;;;;;;13.90;7.13;;;5.30;87.50;;;;;;5028190;28;20049;-75
2024/01/02 04:37:28;;;;;;;16.47;7.93;;;5.30;87.50;;;;;;5025741;28;20533;-75
2024/01/02 04:39:54;;;;;;;19.93;7.90;;;5.30;87.50;;;;;;5026901;28;20085;-75
2024/01/02 04:42:20;;;;;;;18.10;8.43;;;5.30;87.50;;;;;;5029316;28;20416;-75
2024/01/02 04:44:45;;;;;;;20.73;7.50;;;5.30;87.60;;;;;;5028866;28;20849;-74
2024/01/02 04:47:11;;;;;;;19.10;8.07;;;5.30;87.60;;;;;;5029300;28;20068;-75
2024/01/02 04:49:37;;;;;;;16.80;7.83;;;5.30;87.60;;;;;;5029989;28;20129;-75
2024/01/02 04:52:03;;;;;;;16.63;7.97;;;5.30;87.60;;;;;;5028670;28;20059;-75
2024/01/02 04:54:28;;;;;;;15.97;7.10;;;5.30;87.60;;;;;;5023234;28;20053;-75
2024/01/02 04:56:54;;;;;;;14.17;6.77;;;5.30;87.70;;;;;;5025993;28;20448;-75
2024/01/02 04:59:20;;;;;;;13.37;6.23;;;5.30;87.70;;;;;;5029666;28;20049;-75
2024/01/02 05:01:45;;;;;;;16.80;6.67;;;5.30;87.70;;;;;;5028159;28;20064;-75
2024/01/02 05:04:11;;;;;;;17.03;7.37;;;5.30;87.80;;;;;;5026083;28;20061;-75
2024/01/02 05:06:37;;;;;;;13.60;6.83;;;5.30;87.80;;;;;;5016197;28;20053;-75
2024/01/02 05:09:02;;;;;;;17.40;5.83;;;5.30;87.80;;;;;;5026993;28;20059;-75
2024/01/02 05:11:28;;;;;;;17.20;6.37;;;5.30;87.80;;;;;;5016124;28;20517;-75
2024/01/02 05:13:54;;;;;;;14.80;5.70;;;5.30;87.90;;;;;;5018974;28;20061;-75
2024/01/02 05:16:19;;;;;;;17.13;5.40;;;5.30;87.90;;;;;;5024226;28;20342;-75
2024/01/02 05:18:45;;;;;;;11.77;4.67;;;5.30;87.90;;;;;;5013083;28;20525;-74
2024/01/02 05:21:11;;;;;;;14.13;4.83;;;5.30;88.00;;;;;;5028970;28;20404;-75
2024/01/02 05:23:36;;;;;;;9.20;4.10;;;5.30;88.00;;;;;;5027473;28;20454;-75
2024/01/02 05:26:02;;;;;;;11.63;3.83;;;5.30;88.10;;;;;;5028102;28;20517;-75
2024/01/02 05:28:29;;;;;;;10.00;4.67;;;5.30;88.10;;;;;;5029191;28;20056;-75
2024/01/02 05:30:54;;;;;;;10.23;4.60;;;5.30;88.10;;;;;;5015683;28;20077;-75
2024/01/02 05:33:20;;;;;;;10.43;4.47;;;5.30;88.10;;;;;;5027407;28;20139;-74
2024/01/02 05:35:45;;;;;;;8.93;4.27;;;5.30;88.00;;;;;;5027087;28;20046;-75
2024/01/02 05:38:11;;;;;;;11.40;4.80;;;5.30;88.10;;;;;;5016087;28;20461;-75
2024/01/02 05:40:37;;;;;;;10.30;4.43;;;5.30;88.00;;;;;;5016173;28;20060;-75
2024/01/02 05:43:03;;;;;;;12.80;5.43;;;5.30;88.20;;;;;;5026190;28;20116;-75
2024/01/02 05:45:28;;;;;;;14.33;5.10;;;5.30;88.10;;;;;;5028679;28;20054;-75
2024/01/02 05:47:54;;;;;;;12.43;5.40;;;5.30;88.20;;;;;;5027705;28;20053;-75
2024/01/02 05:50:19;;;;;;;13.40;4.70;;;5.30;88.20;;;;;;5027079;28;20044;-75
2024/01/02 05:52:46;;;;;;;12.33;5.53;;;5.30;88.20;;;;;;5027560;28;20049;-74
2024/01/02 05:55:11;;;;;;;10.37;4.67;;;5.30;88.20;;;;;;5027456;28;20611;-75
2024/01/02 05:57:37;;;;;;;10.03;4.83;;;5.30;88.20;;;;;;5028696;28;20049;-75
2024/01/02 06:00:03;;;;;;;11.10;4.77;;;5.30;88.20;;;;;;5022834;28;20463;-71
2024/01/02 06:02:29;;;;;;;10.33;4.23;;;5.30;88.30;;;;;;5027566;28;20057;-75
2024/01/02 06:04:54;;;;;;;9.43;3.97;;;5.30;88.30;;;;;;5034603;28;20412;-75
2024/01/02 06:07:20;;;;;;;11.60;3.97;;;5.30;88.30;;;;;;5039031;28;20492;-75
2024/01/02 06:09:46;;;;;;;7.00;2.90;;;5.30;88.40;;;;;;5036697;28;20064;-75
2024/01/02 06:12:11;;;;;;;8.50;3.03;;;5.30;88.40;;;;;;5045189;28;20041;-74
2024/01/02 06:14:37;;;;;;;4.93;2.47;;;5.30;88.40;;;;;;5038300;28;20088;-75
2024/01/02 06:17:03;;;;;;;8.10;3.23;;;5.30;88.40;;;;;;5036780;28;20053;-74
2024/01/02 06:19:29;;;;;;;5.67;2.93;;;5.30;88.40;;;;;;5019419;28;20088;-75
2024/01/02 06:21:55;;;;;;;5.63;3.47;;;5.30;88.50;;;;;;5040145;28;20076;-74
2024/01/02 06:24:21;;;;;;;5.17;3.10;;;5.30;88.60;;;;;;5024428;28;20563;-74
2024/01/02 06:26:47;;;;;;;5.77;3.47;;;5.30;88.50;;;;;;5027772;28;20095;-75
2024/01/02 06:29:13;;;;;;;6.63;3.10;;;5.30;88.60;;;;;;5033269;28;20056;-73
2024/01/02 06:31:38;;;;;;;6.43;2.80;;;5.30;88.50;;;;;;5038079;28;20102;-74
2024/01/02 06:34:04;;;;;;;5.77;2.40;;;5.30;88.60;;;;;;5036498;28;20056;-74
2024/01/02 06:36:30;;;;;;;4.67;2.60;;;5.30;88.60;;;;;;5034497;28;20475;-75
2024/01/02 06:38:55;;;;;;;4.50;2.30;;;5.30;88.60;;;;;;5044858;28;20088;-75
2024/01/02 06:41:21;;;;;;;4.43;2.30;;;5.30;88.60;;;;;;5035055;28;20096;-74
2024/01/02 06:43:46;;;;;;;4.90;2.43;;;5.30;88.70;;;;;;5026793;28;20106;-74
2024/01/02 06:46:13;;;;;;;4.47;1.80;;;5.30;88.60;;;;;;5025752;28;20072;-75
2024/01/02 06:48:40;;;;;;;4.57;1.70;;;5.30;88.70;;;;;;5028013;28;20133;-74
2024/01/02 06:51:06;;;;;;;2.90;1.60;;;5.30;88.70;;;;;;5026661;28;20053;-74
2024/01/02 06:53:31;;;;;;;3.73;1.70;;;5.30;88.70;;;;;;5025682;28;20045;-75
2024/01/02 06:55:57;;;;;;;3.70;1.60;;;5.40;88.70;;;;;;5016549;28;20088;-74
2024/01/02 06:58:23;;;;;;;4.53;1.70;;;5.40;88.70;;;;;;5016089;28;20060;-75
2024/01/02 07:00:48;;;;;;;3.20;2.30;;;5.40;88.80;;;;;;5023413;28;20077;-74
2024/01/02 07:03:14;;;;;;;4.93;2.77;;;5.40;88.80;;;;;;5026680;28;20136;-74
2024/01/02 07:05:40;;;;;;;3.30;2.60;;;5.40;88.80;;;;;;5026632;28;20165;-75
2024/01/02 07:08:06;;;;;;;5.33;2.23;;;5.40;88.80;;;;;;5025795;28;20533;-74
2024/01/02 07:10:31;;;;;;;4.23;2.60;;;5.50;88.80;;;;;;5026081;28;20091;-74
2024/01/02 07:12:57;;;;;;;4.83;2.23;;;5.50;88.90;;;;;;5032502;28;20049;-74
2024/01/02 07:15:23;;;;;;;4.87;2.33;;;5.50;88.80;;;;;;5034924;28;20057;-74
2024/01/02 07:17:48;;;;;;;6.37;2.53;;;5.50;88.90;;;;;;5034243;28;20053;-74
2024/01/02 07:20:14;;;;;;;6.63;2.90;;;5.50;88.90;;;;;;5031155;28;20136;-74
2024/01/02 07:22:40;;;;;;;4.33;2.70;;;5.50;88.90;;;;;;5030733;28;20052;-75
2024/01/02 07:25:06;;;;;;;4.93;2.60;;;5.50;88.90;;;;;;5024920;28;20077;-74
2024/01/02 07:27:31;;;;;;;6.13;3.27;;;5.50;88.90;;;;;;5025854;28;20053;-74
2024/01/02 07:29:57;;;;;;;4.50;3.20;;;5.50;88.90;;;;;;5026042;28;20355;-74
2024/01/02 07:32:23;;;;;;;5.03;3.63;;;5.50;88.90;;;;;;5025981;28;20053;-75
2024/01/02 07:34:48;;;;;;;3.77;3.20;;;5.50;88.90;;;;;;5025593;28;20103;-75
2024/01/02 07:37:15;;;;;;;4.70;3.70;;;5.50;89.00;;;;;;5034042;28;20071;-75
2024/01/02 07:39:41;;;;;;;4.93;3.60;;;5.50;89.00;;;;;;5036545;28;21750;-74
2024/01/02 07:42:08;;;;;;;5.87;3.80;;;5.60;89.00;;;;;;5031003;28;20065;-74
2024/01/02 07:44:35;;;;;;;6.50;3.40;;;5.60;89.00;;;;;;5036197;28;20081;-74
2024/01/02 07:47:01;;;;;;;4.07;3.20;;;5.60;89.00;;;;;;5033029;28;20091;-73
2024/01/02 07:49:27;;;;;;;3.30;2.93;;;5.60;89.00;;;;;;5034439;28;20048;-75
2024/01/02 07:51:54;;;;;;;6.10;3.63;;;5.70;89.20;;;;;;5034423;28;20462;-75
2024/01/02 07:54:20;;;;;;;9.13;5.77;;;5.80;89.30;;;;;;5034678;28;20412;-74
2024/01/02 07:56:46;;;;;;;7.97;5.70;;;5.80;89.20;;;;;;5033936;28;20111;-74
2024/01/02 07:59:15;;;;;;;52.37;33.00;;;5.80;89.30;;;;;;5028570;28;20049;-75
2024/01/02 08:01:41;;;;;;;29.00;18.33;;;5.90;89.30;;;;;;5033751;28;20296;-75
2024/01/02 08:04:07;;;;;;;14.00;9.40;;;5.90;89.30;;;;;;5034487;28;20057;-74
2024/01/02 08:06:33;;;;;;;30.83;20.07;;;5.90;89.30;;;;;;5035484;28;20140;-73
2024/01/02 08:08:58;;;;;;;25.50;19.03;;;6.00;89.40;;;;;;5032017;28;20053;-75
2024/01/02 08:11:24;;;;;;;15.40;11.37;;;6.00;89.40;;;;;;5030760;28;20057;-75
2024/01/02 08:13:50;;;;;;;18.97;14.00;;;6.10;89.40;;;;;;5039677;28;20489;-75
2024/01/02 08:16:15;;;;;;;16.30;11.03;;;6.20;89.50;;;;;;5037279;28;20056;-75
2024/01/02 08:18:41;;;;;;;15.30;11.10;;;6.20;89.50;;;;;;5037587;28;20147;-75
2024/01/02 08:21:07;;;;;;;23.33;16.10;;;6.20;89.60;;;;;;5035116;28;20179;-75
2024/01/02 08:23:35;;;;;;;12.73;8.47;;;6.30;89.60;;;;;;5034208;28;20049;-75
2024/01/02 08:26:02;;;;;;;13.67;7.97;;;6.40;89.60;;;;;;5038116;28;20058;-75
2024/01/02 08:28:28;;;;;;;13.47;8.40;;;6.40;89.70;;;;;;5038255;28;20052;-75
2024/01/02 08:30:54;;;;;;;18.77;9.53;;;6.50;89.80;;;;;;5027756;28;20078;-75
2024/01/02 08:33:19;;;;;;;25.40;10.33;;;6.60;89.90;;;;;;5015966;28;20044;-74
2024/01/02 08:35:45;;;;;;;23.87;11.13;;;6.80;89.80;;;;;;5008232;28;20050;-75
2024/01/02 08:38:10;;;;;;;23.33;11.47;;;6.80;89.80;;;;;;5013814;28;20065;-74
2024/01/02 08:40:36;;;;;;;24.07;11.37;;;6.90;89.90;;;;;;5012469;28;20049;-75
2024/01/02 08:43:02;;;;;;;25.40;10.37;;;7.00;90.00;;;;;;5037384;28;20060;-74
2024/01/02 08:45:28;;;;;;;29.13;11.90;;;7.10;89.90;;;;;;5010179;28;20058;-75
2024/01/02 08:47:53;;;;;;;29.70;11.47;;;7.20;90.00;;;;;;5008441;28;20045;-76
2024/01/02 08:50:19;;;;;;;30.77;12.70;;;7.20;90.10;;;;;;5000303;28;20038;-74
2024/01/02 08:52:47;;;;;;;28.73;12.57;;;7.40;90.20;;;;;;5010601;28;20072;-75
2024/01/02 08:55:14;;;;;;;29.43;10.63;;;7.50;90.20;;;;;;5015724;28;20140;-75
2024/01/02 08:57:40;;;;;;;31.63;10.60;;;7.60;90.30;;;;;;5012233;28;20169;-75
2024/01/02 09:00:07;;;;;;;25.70;8.77;;;7.80;90.30;;;;;;5010885;28;20472;-75
2024/01/02 09:02:33;;;;;;;32.93;7.83;;;7.90;90.40;;;;;;5010053;28;20054;-74
2024/01/02 09:04:59;;;;;;;36.53;6.60;;;8.00;90.50;;;;;;5001678;28;20053;-75
2024/01/02 09:07:24;;;;;;;35.43;6.67;;;8.10;90.50;;;;;;5002850;28;20100;-76
2024/01/02 09:09:50;;;;;;;35.73;5.80;;;8.20;90.50;;;;;;5007293;28;20137;-75
2024/01/02 09:12:16;;;;;;;42.20;5.57;;;8.30;90.50;;;;;;5003184;28;20060;-75
2024/01/02 09:14:42;;;;;;;35.53;5.73;;;8.40;90.60;;;;;;5009462;28;20053;-75
2024/01/02 09:17:08;;;;;;;34.57;5.33;;;8.40;90.50;;;;;;5018151;28;20054;-75
2024/01/02 09:19:33;;;;;;;32.13;4.77;;;8.40;90.50;;;;;;5012219;28;20050;-75
2024/01/02 09:22:00;;;;;;;26.00;5.13;;;8.50;90.60;;;;;;5016962;28;20076;-75
2024/01/02 09:24:28;;;;;;;36.33;5.13;;;8.50;90.40;;;;;;5003097;28;20131;-75
2024/01/02 09:26:55;;;;;;;32.07;4.97;;;8.60;90.50;;;;;;5002431;28;20428;-75
2024/01/02 09:29:23;;;;;;;32.40;4.50;;;8.60;90.50;;;;;;5006733;28;20060;-74
2024/01/02 09:31:49;;;;;;;31.30;5.13;;;8.60;90.50;;;;;;5007072;28;20136;-76
2024/01/02 09:34:14;;;;;;;34.63;5.03;;;8.70;90.30;;;;;;5022543;28;20124;-76
2024/01/02 09:36:41;;;;;;;26.47;4.13;;;8.70;90.30;;;;;;5038249;28;20056;-75
2024/01/02 09:39:06;;;;;;;31.23;4.30;;;8.80;90.30;;;;;;5018683;28;20618;-75
2024/01/02 09:41:53;;;;;;;22.93;4.87;;;8.80;90.20;;;;;;5016830;28;20053;-76
2024/01/02 09:44:27;;;;;;;30.17;5.53;;;8.80;90.10;;;;;;5012837;28;20080;-73
2024/01/02 09:47:12;;;;;;;29.43;5.33;;;8.80;90.10;;;;;;5008223;28;20058;-75
2024/01/02 09:49:58;;;;;;;30.70;5.43;;;8.90;90.00;;;;;;5010201;28;20045;-76
2024/01/02 09:52:34;;;;;;;24.73;4.70;;;8.90;90.00;;;;;;5020691;28;20041;-76
2024/01/02 09:55:17;;;;;;;28.40;4.97;;;8.90;90.00;;;;;;5018312;28;20099;-75
2024/01/02 09:57:54;;;;;;;27.27;4.97;;;9.00;89.90;;;;;;5019978;28;20057;-75
2024/01/02 10:00:50;;;;;;;30.00;4.67;;;9.00;89.80;;;;;;5015299;28;20414;-74
2024/01/02 10:03:40;;;;;;;30.00;5.27;;;9.00;89.80;;;;;;5011782;28;20064;-75
2024/01/02 10:06:41;;;;;;;25.33;4.47;;;9.00;89.80;;;;;;5022142;28;20060;-76
2024/01/02 10:09:51;;;;;;;26.30;4.10;;;9.00;89.70;;;;;;5024960;28;20154;-75
2024/01/02 10:12:41;;;;;;;28.77;4.70;;;9.10;89.60;;;;;;5009611;28;20522;-75
2024/01/02 10:15:36;;;;;;;34.73;5.53;;;9.10;89.70;;;;;;4995705;28;20058;-76
2024/01/02 10:18:29;;;;;;;31.43;4.73;;;9.20;89.60;;;;;;5014745;28;20104;-76
2024/01/02 10:21:27;;;;;;;26.83;5.07;;;9.20;89.40;;;;;;5020327;28;20141;-75
2024/01/02 10:24:06;;;;;;;27.90;5.23;;;9.20;89.50;;;;;;5022754;28;20053;-76
2024/01/02 10:26:37;;;;;;;24.63;5.13;;;9.20;89.40;;;;;;5034570;28;20056;-75
2024/01/02 10:29:07;;;;;;;31.50;5.95;;;9.20;89.30;;;;;;5024801;28;20136;-75
2024/01/02 10:31:53;;;;;;;27.67;4.63;;;9.20;89.30;;;;;;5012111;28;20140;-75
2024/01/02 10:34:35;;;;;;;32.90;5.60;;;9.20;89.20;;;;;;5015334;28;20120;-75
2024/01/02 10:37:05;;;;;;;24.65;4.30;;;9.20;89.10;;;;;;5023567;28;20453;-75
2024/01/02 10:39:45;;;;;;;31.80;6.30;;;9.30;89.00;;;;;;5007176;28;20496;-75
2024/01/02 10:42:36;;;;;;;29.23;5.77;;;9.30;88.80;;;;;;5024127;28;20241;-74
2024/01/02 10:45:14;;;;;;;32.33;5.18;;;9.40;88.70;;;;;;5009457;28;20053;-75
2024/01/02 10:48:09;;;;;;;32.30;5.27;;;9.40;88.70;;;;;;5010035;28;20122;-75
2024/01/02 10:50:57;;;;;;;32.80;5.50;;;9.40;88.60;;;;;;5015056;28;20046;-75
2024/01/02 10:53:45;;;;;;;27.57;5.50;;;9.40;88.40;;;;;;4998334;28;20580;-75
2024/01/02 10:56:28;;;;;;;29.40;5.53;;;9.40;88.20;;;;;;5012053;28;20093;-75
2024/01/02 10:59:03;;;;;;;35.57;5.90;;;9.50;88.10;;;;;;5021702;28;20416;-75
2024/01/02 11:01:32;;;;;;;25.77;5.80;;;9.50;88.00;;;;;;5014464;28;20061;-75
2024/01/02 11:04:05;;;;;;;28.03;5.43;;;9.50;87.90;;;;;;5008607;28;20050;-75
2024/01/02 11:07:04;;;;;;;33.30;5.20;;;9.60;87.90;;;;;;5026687;28;20045;-75
2024/01/02 11:09:55;;;;;;;39.37;5.80;;;9.60;87.80;;;;;;5018671;28;20057;-75
2024/01/02 11:12:23;;;;;;;34.60;5.43;;;9.60;87.80;;;;;;5032384;28;20049;-75
2024/01/02 11:14:51;;;;;;;30.43;5.60;;;9.60;87.70;;;;;;5019075;28;20375;-75
2024/01/02 11:17:18;;;;;;;31.60;5.97;;;9.70;87.70;;;;;;5033167;28;20498;-75
2024/01/02 11:19:53;;;;;;;28.63;4.83;;;9.70;87.60;;;;;;5018980;28;20381;-75
2024/01/02 11:22:29;;;;;;;29.97;5.60;;;9.70;87.80;;;;;;5013330;28;20064;-75
2024/01/02 11:24:59;;;;;;;29.07;5.10;;;9.70;87.70;;;;;;5022952;28;20134;-74
2024/01/02 11:27:26;;;;;;;31.13;5.30;;;9.70;87.70;;;;;;5034113;28;20045;-75
2024/01/02 11:29:56;;;;;;;30.03;5.50;;;9.70;87.70;;;;;;5031802;28;20049;-75
2024/01/02 11:32:33;;;;;;;31.00;4.93;;;9.80;87.70;;;;;;5033385;28;20041;-75
2024/01/02 11:35:05;;;;;;;33.77;6.03;;;9.90;87.80;;;;;;5035704;28;20053;-75
2024/01/02 11:37:38;;;;;;;24.33;5.60;;;9.80;87.70;;;;;;5033058;28;20079;-76
2024/01/02 11:40:12;;;;;;;28.33;5.47;;;9.80;87.50;;;;;;5009565;28;20543;-74
2024/01/02 11:42:56;;;;;;;23.40;5.80;;;9.80;87.40;;;;;;5030551;28;20056;-75
2024/01/02 11:45:25;;;;;;;30.07;5.73;;;9.80;87.40;;;;;;5030343;28;20077;-75
2024/01/02 11:48:10;;;;;;;34.03;6.10;;;9.80;87.30;;;;;;5029008;28;20045;-76
2024/01/02 11:51:01;;;;;;;30.30;5.77;;;9.80;87.50;;;;;;5025350;28;20045;-76
2024/01/02 11:53:26;;;;;;;32.03;5.10;;;9.80;87.40;;;;;;5021733;28;20556;-75
2024/01/02 11:55:56;;;;;;;34.57;5.77;;;9.70;87.20;;;;;;5029565;28;20052;-75
2024/01/02 11:58:51;;;;;;;32.47;5.90;;;9.70;87.40;;;;;;5032236;28;20129;-75
2024/01/02 12:01:20;;;;;;;38.03;7.20;;;9.70;87.50;;;;;;5012607;28;20497;-76
2024/01/02 12:04:33;;;;;;;28.73;6.63;;;9.70;87.40;;;;;;5011714;28;20057;-76
2024/01/02 12:07:10;;;;;;;32.43;6.77;;;9.70;87.50;;;;;;4975139;28;20061;-76
2024/01/02 12:09:40;;;;;;;31.93;6.03;;;9.60;87.40;;;;;;5018195;28;20072;-75
2024/01/02 12:12:15;;;;;;;27.80;5.20;;;9.60;87.50;;;;;;5022252;28;20045;-76
2024/01/02 12:14:55;;;;;;;29.70;5.27;;;9.60;87.50;;;;;;5026253;28;20404;-75
2024/01/02 12:17:24;;;;;;;27.87;5.60;;;9.60;87.60;;;;;;5020334;28;20413;-75
2024/01/02 12:19:52;;;;;;;31.83;5.40;;;9.60;87.60;;;;;;5027028;28;20037;-76
2024/01/02 12:22:18;;;;;;;45.23;8.67;;;9.60;87.70;;;;;;5014903;28;20060;-76
2024/01/02 12:24:45;;;;;;;41.77;9.77;;;9.60;87.80;;;;;;5015763;28;20061;-76
2024/01/02 12:27:15;;;;;;;38.47;9.87;;;9.60;87.70;;;;;;5016495;28;20057;-75
2024/01/02 12:29:48;;;;;;;67.57;18.37;;;9.60;87.80;;;;;;5007138;28;20563;-76
2024/01/02 12:32:37;;;;;;;55.83;18.77;;;9.60;87.90;;;;;;5019208;28;20052;-75
2024/01/02 12:35:07;;;;;;;60.27;19.10;;;9.70;87.90;;;;;;5015490;28;20045;-76
2024/01/02 12:37:44;;;;;;;76.90;22.13;;;9.60;87.90;;;;;;5025134;28;20432;-76
2024/01/02 12:40:13;;;;;;;76.63;24.40;;;9.60;87.90;;;;;;5016275;28;20412;-76
2024/01/02 12:42:46;;;;;;;78.33;24.40;;;9.60;88.00;;;;;;5030373;28;20119;-76
2024/01/02 12:45:17;;;;;;;82.33;29.30;;;9.60;88.00;;;;;;5019034;28;20136;-75
2024/01/02 12:47:46;;;;;;;87.53;29.65;;;9.60;88.00;;;;;;5023536;28;20425;-75
2024/01/02 12:50:16;;;;;;;97.63;29.57;;;9.60;88.00;;;;;;4998871;28;20057;-75
2024/01/02 12:52:48;;;;;;;87.43;27.60;;;9.60;88.00;;;;;;5026446;28;20083;-76
2024/01/02 12:55:17;;;;;;;90.23;29.47;;;9.60;88.00;;;;;;5033664;28;20052;-76
2024/01/02 12:57:42;;;;;;;94.97;28.43;;;9.60;88.00;;;;;;5032598;28;20136;-76